sensor_id;sensor_type;location;lat;lon;timestamp;P1;durP1;ratioP1;P2;durP2;ratioP2
13327;SDS011;6733;51.044;3.746;2022-10-31T00:01:40;7.60;;;4.20;;
13327;SDS011;6733;51.044;3.746;2022-10-31T00:04:06;6.93;;;5.07;;
13327;SDS011;6733;51.044;3.746;2022-10-31T00:06:32;10.70;;;5.63;;
13327;SDS011;6733;51.044;3.746;2022-10-31T00:08:59;7.47;;;5.20;;
13327;SDS011;6733;51.044;3.746;2022-10-31T00:11:27;6.10;;;5.30;;
13327;SDS011;6733;51.044;3.746;2022-10-31T00:13:54;8.63;;;5.23;;
13327;SDS011;6733;51.044;3.746;2022-10-31T00:16:21;8.20;;;5.30;;
13327;SDS011;6733;51.044;3.746;2022-10-31T00:18:52;7.13;;;5.43;;
13327;SDS011;6733;51.044;3.746;2022-10-31T00:21:21;8.90;;;5.40;;
13327;SDS011;6733;51.044;3.746;2022-10-31T00:23:48;10.57;;;5.13;;
13327;SDS011;6733;51.044;3.746;2022-10-31T00:26:14;7.57;;;5.37;;
13327;SDS011;6733;51.044;3.746;2022-10-31T00:28:40;6.63;;;5.17;;
13327;SDS011;6733;51.044;3.746;2022-10-31T00:31:07;9.93;;;5.30;;
13327;SDS011;6733;51.044;3.746;2022-10-31T00:33:35;9.03;;;6.07;;
13327;SDS011;6733;51.044;3.746;2022-10-31T00:36:03;7.67;;;5.60;;
13327;SDS011;6733;51.044;3.746;2022-10-31T00:38:30;11.30;;;6.53;;
13327;SDS011;6733;51.044;3.746;2022-10-31T00:40:56;9.20;;;6.50;;
13327;SDS011;6733;51.044;3.746;2022-10-31T00:43:23;7.20;;;5.80;;
13327;SDS011;6733;51.044;3.746;2022-10-31T00:45:49;9.23;;;6.57;;
13327;SDS011;6733;51.044;3.746;2022-10-31T00:48:15;8.30;;;5.67;;
13327;SDS011;6733;51.044;3.746;2022-10-31T00:50:41;7.63;;;6.10;;
13327;SDS011;6733;51.044;3.746;2022-10-31T00:53:08;6.33;;;5.47;;
13327;SDS011;6733;51.044;3.746;2022-10-31T00:55:34;11.40;;;5.90;;
13327;SDS011;6733;51.044;3.746;2022-10-31T00:58:00;7.30;;;6.10;;
13327;SDS011;6733;51.044;3.746;2022-10-31T01:00:26;10.53;;;6.10;;
13327;SDS011;6733;51.044;3.746;2022-10-31T01:02:52;6.93;;;5.33;;
13327;SDS011;6733;51.044;3.746;2022-10-31T01:05:19;8.47;;;5.20;;
13327;SDS011;6733;51.044;3.746;2022-10-31T01:07:45;8.27;;;5.93;;
13327;SDS011;6733;51.044;3.746;2022-10-31T01:10:12;6.57;;;5.50;;
13327;SDS011;6733;51.044;3.746;2022-10-31T01:12:39;8.97;;;5.60;;
13327;SDS011;6733;51.044;3.746;2022-10-31T01:15:06;8.67;;;5.47;;
13327;SDS011;6733;51.044;3.746;2022-10-31T01:17:34;9.07;;;5.10;;
13327;SDS011;6733;51.044;3.746;2022-10-31T01:20:00;12.10;;;6.07;;
13327;SDS011;6733;51.044;3.746;2022-10-31T01:22:26;7.53;;;5.00;;
13327;SDS011;6733;51.044;3.746;2022-10-31T01:24:52;9.13;;;5.93;;
13327;SDS011;6733;51.044;3.746;2022-10-31T01:27:19;8.87;;;6.37;;
13327;SDS011;6733;51.044;3.746;2022-10-31T01:29:45;8.57;;;6.07;;
13327;SDS011;6733;51.044;3.746;2022-10-31T01:32:11;7.83;;;6.00;;
13327;SDS011;6733;51.044;3.746;2022-10-31T01:34:37;9.43;;;6.33;;
13327;SDS011;6733;51.044;3.746;2022-10-31T01:37:03;9.23;;;6.20;;
13327;SDS011;6733;51.044;3.746;2022-10-31T01:39:29;8.47;;;6.00;;
13327;SDS011;6733;51.044;3.746;2022-10-31T01:41:55;7.87;;;6.37;;
13327;SDS011;6733;51.044;3.746;2022-10-31T01:49:18;7.27;;;6.27;;
13327;SDS011;6733;51.044;3.746;2022-10-31T01:51:57;11.30;;;6.17;;
13327;SDS011;6733;51.044;3.746;2022-10-31T01:54:37;10.17;;;6.53;;
13327;SDS011;6733;51.044;3.746;2022-10-31T01:57:08;8.47;;;6.53;;
13327;SDS011;6733;51.044;3.746;2022-10-31T01:59:38;9.90;;;6.93;;
13327;SDS011;6733;51.044;3.746;2022-10-31T02:02:09;7.80;;;6.80;;
13327;SDS011;6733;51.044;3.746;2022-10-31T02:04:36;12.20;;;6.50;;
13327;SDS011;6733;51.044;3.746;2022-10-31T02:07:05;9.20;;;6.33;;
13327;SDS011;6733;51.044;3.746;2022-10-31T02:09:36;10.97;;;7.03;;
13327;SDS011;6733;51.044;3.746;2022-10-31T02:12:02;9.20;;;6.53;;
13327;SDS011;6733;51.044;3.746;2022-10-31T02:14:30;8.60;;;6.90;;
13327;SDS011;6733;51.044;3.746;2022-10-31T02:16:57;13.13;;;7.13;;
13327;SDS011;6733;51.044;3.746;2022-10-31T02:48:10;13.50;;;9.77;;
13327;SDS011;6733;51.044;3.746;2022-10-31T02:50:41;12.13;;;8.43;;
13327;SDS011;6733;51.044;3.746;2022-10-31T02:53:14;11.73;;;7.83;;
13327;SDS011;6733;51.044;3.746;2022-10-31T02:55:59;13.87;;;8.03;;
13327;SDS011;6733;51.044;3.746;2022-10-31T02:58:36;19.50;;;14.07;;
13327;SDS011;6733;51.044;3.746;2022-10-31T03:09:32;11.43;;;9.10;;
13327;SDS011;6733;51.044;3.746;2022-10-31T03:20:20;10.33;;;8.93;;
13327;SDS011;6733;51.044;3.746;2022-10-31T03:23:11;15.90;;;9.63;;
13327;SDS011;6733;51.044;3.746;2022-10-31T03:25:40;10.00;;;8.40;;
13327;SDS011;6733;51.044;3.746;2022-10-31T03:28:09;13.00;;;8.93;;
13327;SDS011;6733;51.044;3.746;2022-10-31T03:30:38;10.17;;;8.33;;
13327;SDS011;6733;51.044;3.746;2022-10-31T03:33:09;14.33;;;9.13;;
13327;SDS011;6733;51.044;3.746;2022-10-31T03:35:41;13.50;;;8.87;;
13327;SDS011;6733;51.044;3.746;2022-10-31T03:38:10;12.97;;;9.00;;
13327;SDS011;6733;51.044;3.746;2022-10-31T03:40:38;12.50;;;9.87;;
13327;SDS011;6733;51.044;3.746;2022-10-31T03:43:10;14.10;;;9.90;;
13327;SDS011;6733;51.044;3.746;2022-10-31T03:45:43;13.77;;;9.83;;
13327;SDS011;6733;51.044;3.746;2022-10-31T03:48:11;17.90;;;11.80;;
13327;SDS011;6733;51.044;3.746;2022-10-31T03:50:49;15.67;;;11.27;;
13327;SDS011;6733;51.044;3.746;2022-10-31T03:53:26;15.20;;;10.07;;
13327;SDS011;6733;51.044;3.746;2022-10-31T03:56:06;13.47;;;10.97;;
13327;SDS011;6733;51.044;3.746;2022-10-31T03:58:48;12.60;;;9.80;;
13327;SDS011;6733;51.044;3.746;2022-10-31T04:01:47;16.53;;;10.57;;
13327;SDS011;6733;51.044;3.746;2022-10-31T04:04:18;16.43;;;10.23;;
13327;SDS011;6733;51.044;3.746;2022-10-31T04:06:45;16.10;;;10.30;;
13327;SDS011;6733;51.044;3.746;2022-10-31T04:09:12;16.43;;;11.07;;
13327;SDS011;6733;51.044;3.746;2022-10-31T04:11:44;15.10;;;10.33;;
13327;SDS011;6733;51.044;3.746;2022-10-31T04:14:13;15.40;;;10.67;;
13327;SDS011;6733;51.044;3.746;2022-10-31T04:16:43;17.73;;;12.50;;
13327;SDS011;6733;51.044;3.746;2022-10-31T04:19:10;13.43;;;10.23;;
13327;SDS011;6733;51.044;3.746;2022-10-31T04:21:37;13.03;;;10.70;;
13327;SDS011;6733;51.044;3.746;2022-10-31T04:24:03;12.87;;;10.70;;
13327;SDS011;6733;51.044;3.746;2022-10-31T04:26:30;13.27;;;10.53;;
13327;SDS011;6733;51.044;3.746;2022-10-31T04:28:56;19.07;;;10.23;;
13327;SDS011;6733;51.044;3.746;2022-10-31T04:31:22;14.07;;;11.07;;
13327;SDS011;6733;51.044;3.746;2022-10-31T04:33:48;12.00;;;9.80;;
13327;SDS011;6733;51.044;3.746;2022-10-31T04:36:14;13.93;;;10.53;;
13327;SDS011;6733;51.044;3.746;2022-10-31T04:38:41;15.53;;;9.87;;
13327;SDS011;6733;51.044;3.746;2022-10-31T04:41:07;15.53;;;10.03;;
13327;SDS011;6733;51.044;3.746;2022-10-31T04:43:33;11.40;;;8.87;;
13327;SDS011;6733;51.044;3.746;2022-10-31T04:45:59;14.83;;;8.83;;
13327;SDS011;6733;51.044;3.746;2022-10-31T04:48:26;12.00;;;8.90;;
13327;SDS011;6733;51.044;3.746;2022-10-31T04:50:52;12.50;;;9.40;;
13327;SDS011;6733;51.044;3.746;2022-10-31T04:53:18;11.03;;;8.57;;
13327;SDS011;6733;51.044;3.746;2022-10-31T04:55:44;12.37;;;8.80;;
13327;SDS011;6733;51.044;3.746;2022-10-31T04:58:10;11.30;;;8.67;;
13327;SDS011;6733;51.044;3.746;2022-10-31T05:00:36;14.67;;;9.10;;
13327;SDS011;6733;51.044;3.746;2022-10-31T05:03:02;11.73;;;7.83;;
13327;SDS011;6733;51.044;3.746;2022-10-31T05:05:29;9.37;;;8.27;;
13327;SDS011;6733;51.044;3.746;2022-10-31T05:07:57;11.20;;;8.87;;
13327;SDS011;6733;51.044;3.746;2022-10-31T05:10:24;9.80;;;8.43;;
13327;SDS011;6733;51.044;3.746;2022-10-31T05:12:56;11.30;;;8.80;;
13327;SDS011;6733;51.044;3.746;2022-10-31T05:15:24;10.37;;;8.37;;
13327;SDS011;6733;51.044;3.746;2022-10-31T05:17:51;10.50;;;8.10;;
13327;SDS011;6733;51.044;3.746;2022-10-31T05:20:18;9.50;;;8.03;;
13327;SDS011;6733;51.044;3.746;2022-10-31T05:22:46;13.40;;;8.60;;
13327;SDS011;6733;51.044;3.746;2022-10-31T05:25:15;13.90;;;8.23;;
13327;SDS011;6733;51.044;3.746;2022-10-31T05:27:43;11.03;;;7.93;;
13327;SDS011;6733;51.044;3.746;2022-10-31T05:30:11;12.90;;;9.03;;
13327;SDS011;6733;51.044;3.746;2022-10-31T05:32:41;10.50;;;8.93;;
13327;SDS011;6733;51.044;3.746;2022-10-31T05:35:10;12.63;;;9.13;;
13327;SDS011;6733;51.044;3.746;2022-10-31T05:37:37;13.07;;;9.57;;
13327;SDS011;6733;51.044;3.746;2022-10-31T05:40:04;15.60;;;9.30;;
13327;SDS011;6733;51.044;3.746;2022-10-31T05:42:32;14.53;;;9.93;;
13327;SDS011;6733;51.044;3.746;2022-10-31T05:44:58;13.03;;;9.23;;
13327;SDS011;6733;51.044;3.746;2022-10-31T05:47:25;10.30;;;9.17;;
13327;SDS011;6733;51.044;3.746;2022-10-31T05:49:51;13.07;;;10.00;;
13327;SDS011;6733;51.044;3.746;2022-10-31T05:52:17;10.63;;;9.33;;
13327;SDS011;6733;51.044;3.746;2022-10-31T05:54:44;12.63;;;9.47;;
13327;SDS011;6733;51.044;3.746;2022-10-31T05:57:10;11.93;;;9.03;;
13327;SDS011;6733;51.044;3.746;2022-10-31T05:59:36;13.27;;;9.63;;
13327;SDS011;6733;51.044;3.746;2022-10-31T06:02:02;12.93;;;9.40;;
13327;SDS011;6733;51.044;3.746;2022-10-31T06:04:28;10.73;;;8.77;;
13327;SDS011;6733;51.044;3.746;2022-10-31T06:06:55;13.23;;;9.13;;
13327;SDS011;6733;51.044;3.746;2022-10-31T06:09:22;11.90;;;8.70;;
13327;SDS011;6733;51.044;3.746;2022-10-31T06:11:48;11.20;;;8.07;;
13327;SDS011;6733;51.044;3.746;2022-10-31T06:17:10;14.27;;;10.03;;
13327;SDS011;6733;51.044;3.746;2022-10-31T06:19:36;12.47;;;9.90;;
13327;SDS011;6733;51.044;3.746;2022-10-31T06:22:02;12.37;;;10.23;;
13327;SDS011;6733;51.044;3.746;2022-10-31T06:24:28;13.27;;;9.70;;
13327;SDS011;6733;51.044;3.746;2022-10-31T06:26:54;14.87;;;10.20;;
13327;SDS011;6733;51.044;3.746;2022-10-31T06:29:20;11.97;;;10.17;;
13327;SDS011;6733;51.044;3.746;2022-10-31T06:31:46;14.20;;;11.00;;
13327;SDS011;6733;51.044;3.746;2022-10-31T06:34:13;15.70;;;11.10;;
13327;SDS011;6733;51.044;3.746;2022-10-31T06:36:39;13.90;;;11.27;;
13327;SDS011;6733;51.044;3.746;2022-10-31T06:39:05;14.87;;;11.00;;
13327;SDS011;6733;51.044;3.746;2022-10-31T06:41:31;14.37;;;11.03;;
13327;SDS011;6733;51.044;3.746;2022-10-31T06:43:57;14.77;;;10.67;;
13327;SDS011;6733;51.044;3.746;2022-10-31T06:46:23;13.17;;;10.63;;
13327;SDS011;6733;51.044;3.746;2022-10-31T06:48:49;16.33;;;11.50;;
13327;SDS011;6733;51.044;3.746;2022-10-31T06:51:15;15.70;;;12.33;;
13327;SDS011;6733;51.044;3.746;2022-10-31T06:53:41;17.27;;;12.80;;
13327;SDS011;6733;51.044;3.746;2022-10-31T06:56:08;16.87;;;11.53;;
13327;SDS011;6733;51.044;3.746;2022-10-31T06:58:34;15.73;;;11.33;;
13327;SDS011;6733;51.044;3.746;2022-10-31T07:01:00;17.97;;;10.77;;
13327;SDS011;6733;51.044;3.746;2022-10-31T07:03:27;14.23;;;11.87;;
13327;SDS011;6733;51.044;3.746;2022-10-31T07:05:55;15.20;;;11.30;;
13327;SDS011;6733;51.044;3.746;2022-10-31T07:08:22;14.67;;;10.97;;
13327;SDS011;6733;51.044;3.746;2022-10-31T07:10:53;15.00;;;11.30;;
13327;SDS011;6733;51.044;3.746;2022-10-31T07:13:20;17.97;;;10.53;;
13327;SDS011;6733;51.044;3.746;2022-10-31T07:15:51;16.37;;;10.83;;
13327;SDS011;6733;51.044;3.746;2022-10-31T07:18:19;14.23;;;10.90;;
13327;SDS011;6733;51.044;3.746;2022-10-31T07:20:46;13.83;;;11.77;;
13327;SDS011;6733;51.044;3.746;2022-10-31T07:23:12;15.97;;;10.60;;
13327;SDS011;6733;51.044;3.746;2022-10-31T07:25:39;16.90;;;10.80;;
13327;SDS011;6733;51.044;3.746;2022-10-31T07:28:06;14.47;;;10.70;;
13327;SDS011;6733;51.044;3.746;2022-10-31T07:30:33;14.17;;;10.63;;
13327;SDS011;6733;51.044;3.746;2022-10-31T07:32:59;15.27;;;11.47;;
13327;SDS011;6733;51.044;3.746;2022-10-31T07:35:27;13.47;;;10.43;;
13327;SDS011;6733;51.044;3.746;2022-10-31T07:37:54;15.70;;;10.23;;
13327;SDS011;6733;51.044;3.746;2022-10-31T07:40:21;15.27;;;11.20;;
13327;SDS011;6733;51.044;3.746;2022-10-31T07:42:50;14.13;;;10.40;;
13327;SDS011;6733;51.044;3.746;2022-10-31T07:45:18;17.10;;;10.67;;
13327;SDS011;6733;51.044;3.746;2022-10-31T07:47:45;13.73;;;10.90;;
13327;SDS011;6733;51.044;3.746;2022-10-31T07:50:15;12.50;;;10.03;;
13327;SDS011;6733;51.044;3.746;2022-10-31T07:52:46;13.90;;;10.70;;
13327;SDS011;6733;51.044;3.746;2022-10-31T07:55:12;12.77;;;9.90;;
13327;SDS011;6733;51.044;3.746;2022-10-31T07:57:39;13.77;;;10.77;;
13327;SDS011;6733;51.044;3.746;2022-10-31T08:00:07;13.13;;;10.27;;
13327;SDS011;6733;51.044;3.746;2022-10-31T08:02:34;13.87;;;11.93;;
13327;SDS011;6733;51.044;3.746;2022-10-31T08:05:00;13.83;;;10.67;;
13327;SDS011;6733;51.044;3.746;2022-10-31T08:07:35;14.57;;;11.67;;
13327;SDS011;6733;51.044;3.746;2022-10-31T08:10:03;16.40;;;12.00;;
13327;SDS011;6733;51.044;3.746;2022-10-31T08:12:29;16.17;;;12.37;;
13327;SDS011;6733;51.044;3.746;2022-10-31T08:14:56;16.93;;;12.43;;
13327;SDS011;6733;51.044;3.746;2022-10-31T08:17:22;21.10;;;13.50;;
13327;SDS011;6733;51.044;3.746;2022-10-31T08:19:48;20.07;;;14.77;;
13327;SDS011;6733;51.044;3.746;2022-10-31T08:22:14;15.43;;;13.17;;
13327;SDS011;6733;51.044;3.746;2022-10-31T08:24:40;34.23;;;14.77;;
13327;SDS011;6733;51.044;3.746;2022-10-31T08:27:06;21.07;;;13.50;;
13327;SDS011;6733;51.044;3.746;2022-10-31T08:29:33;14.97;;;12.57;;
13327;SDS011;6733;51.044;3.746;2022-10-31T08:31:59;19.83;;;13.23;;
13327;SDS011;6733;51.044;3.746;2022-10-31T08:34:26;15.93;;;13.13;;
13327;SDS011;6733;51.044;3.746;2022-10-31T08:36:52;20.13;;;14.73;;
13327;SDS011;6733;51.044;3.746;2022-10-31T08:39:18;17.53;;;13.80;;
13327;SDS011;6733;51.044;3.746;2022-10-31T08:41:44;19.53;;;13.83;;
13327;SDS011;6733;51.044;3.746;2022-10-31T08:44:10;20.07;;;13.57;;
13327;SDS011;6733;51.044;3.746;2022-10-31T08:46:36;18.93;;;14.43;;
13327;SDS011;6733;51.044;3.746;2022-10-31T08:49:03;20.33;;;15.57;;
13327;SDS011;6733;51.044;3.746;2022-10-31T08:51:29;18.37;;;13.77;;
13327;SDS011;6733;51.044;3.746;2022-10-31T08:53:55;16.20;;;13.57;;
13327;SDS011;6733;51.044;3.746;2022-10-31T08:56:21;15.73;;;13.00;;
13327;SDS011;6733;51.044;3.746;2022-10-31T08:58:47;15.27;;;12.43;;
13327;SDS011;6733;51.044;3.746;2022-10-31T09:01:14;18.03;;;12.73;;
13327;SDS011;6733;51.044;3.746;2022-10-31T09:03:40;21.27;;;12.70;;
13327;SDS011;6733;51.044;3.746;2022-10-31T09:06:06;15.50;;;12.50;;
13327;SDS011;6733;51.044;3.746;2022-10-31T09:08:34;18.13;;;13.30;;
13327;SDS011;6733;51.044;3.746;2022-10-31T09:11:01;20.00;;;13.37;;
13327;SDS011;6733;51.044;3.746;2022-10-31T09:13:28;14.67;;;12.63;;
13327;SDS011;6733;51.044;3.746;2022-10-31T09:15:55;16.37;;;13.70;;
13327;SDS011;6733;51.044;3.746;2022-10-31T09:18:24;20.57;;;13.37;;
13327;SDS011;6733;51.044;3.746;2022-10-31T09:20:52;16.30;;;13.10;;
13327;SDS011;6733;51.044;3.746;2022-10-31T09:23:19;20.03;;;13.93;;
13327;SDS011;6733;51.044;3.746;2022-10-31T09:25:48;18.17;;;13.27;;
13327;SDS011;6733;51.044;3.746;2022-10-31T09:28:16;15.57;;;13.40;;
13327;SDS011;6733;51.044;3.746;2022-10-31T09:30:45;16.90;;;13.30;;
13327;SDS011;6733;51.044;3.746;2022-10-31T09:33:18;16.63;;;14.60;;
13327;SDS011;6733;51.044;3.746;2022-10-31T09:35:45;17.07;;;13.00;;
13327;SDS011;6733;51.044;3.746;2022-10-31T09:38:13;15.33;;;13.73;;
13327;SDS011;6733;51.044;3.746;2022-10-31T09:51:18;15.17;;;13.47;;
13327;SDS011;6733;51.044;3.746;2022-10-31T09:53:59;14.20;;;12.73;;
13327;SDS011;6733;51.044;3.746;2022-10-31T09:56:27;17.57;;;14.33;;
13327;SDS011;6733;51.044;3.746;2022-10-31T09:59:00;18.73;;;13.17;;
13327;SDS011;6733;51.044;3.746;2022-10-31T10:01:30;19.03;;;13.33;;
13327;SDS011;6733;51.044;3.746;2022-10-31T10:07:13;17.33;;;12.97;;
13327;SDS011;6733;51.044;3.746;2022-10-31T10:09:46;18.73;;;13.87;;
13327;SDS011;6733;51.044;3.746;2022-10-31T10:20:31;19.20;;;13.87;;
13327;SDS011;6733;51.044;3.746;2022-10-31T10:23:22;18.80;;;13.73;;
13327;SDS011;6733;51.044;3.746;2022-10-31T10:26:06;18.07;;;14.17;;
13327;SDS011;6733;51.044;3.746;2022-10-31T10:28:48;22.17;;;15.03;;
13327;SDS011;6733;51.044;3.746;2022-10-31T10:31:27;16.87;;;13.50;;
13327;SDS011;6733;51.044;3.746;2022-10-31T10:36:48;16.13;;;13.17;;
13327;SDS011;6733;51.044;3.746;2022-10-31T10:39:23;18.67;;;13.30;;
13327;SDS011;6733;51.044;3.746;2022-10-31T10:42:04;21.77;;;13.27;;
13327;SDS011;6733;51.044;3.746;2022-10-31T10:44:57;14.57;;;12.07;;
13327;SDS011;6733;51.044;3.746;2022-10-31T10:47:44;13.67;;;12.23;;
13327;SDS011;6733;51.044;3.746;2022-10-31T10:50:19;16.17;;;11.83;;
13327;SDS011;6733;51.044;3.746;2022-10-31T10:52:53;16.93;;;12.73;;
13327;SDS011;6733;51.044;3.746;2022-10-31T10:58:26;19.73;;;13.00;;
13327;SDS011;6733;51.044;3.746;2022-10-31T11:00:53;18.60;;;12.00;;
13327;SDS011;6733;51.044;3.746;2022-10-31T11:03:21;18.27;;;12.10;;
13327;SDS011;6733;51.044;3.746;2022-10-31T11:05:51;15.23;;;12.30;;
13327;SDS011;6733;51.044;3.746;2022-10-31T11:13:37;18.03;;;12.73;;
13327;SDS011;6733;51.044;3.746;2022-10-31T11:16:08;16.37;;;13.37;;
13327;SDS011;6733;51.044;3.746;2022-10-31T11:18:38;15.67;;;12.27;;
13327;SDS011;6733;51.044;3.746;2022-10-31T11:21:19;15.80;;;12.23;;
13327;SDS011;6733;51.044;3.746;2022-10-31T11:24:01;16.03;;;12.33;;
13327;SDS011;6733;51.044;3.746;2022-10-31T11:26:37;16.47;;;12.20;;
13327;SDS011;6733;51.044;3.746;2022-10-31T11:29:05;16.93;;;12.00;;
13327;SDS011;6733;51.044;3.746;2022-10-31T11:31:38;15.63;;;12.00;;
13327;SDS011;6733;51.044;3.746;2022-10-31T11:34:06;14.40;;;11.93;;
13327;SDS011;6733;51.044;3.746;2022-10-31T11:36:41;17.63;;;12.10;;
13327;SDS011;6733;51.044;3.746;2022-10-31T11:39:22;18.20;;;12.47;;
13327;SDS011;6733;51.044;3.746;2022-10-31T11:41:50;15.93;;;12.23;;
13327;SDS011;6733;51.044;3.746;2022-10-31T11:46:47;19.70;;;11.47;;
13327;SDS011;6733;51.044;3.746;2022-10-31T11:49:17;15.70;;;12.70;;
13327;SDS011;6733;51.044;3.746;2022-10-31T11:51:52;16.07;;;12.70;;
13327;SDS011;6733;51.044;3.746;2022-10-31T11:54:22;19.43;;;12.43;;
13327;SDS011;6733;51.044;3.746;2022-10-31T11:56:53;15.63;;;12.70;;
13327;SDS011;6733;51.044;3.746;2022-10-31T11:59:29;18.53;;;12.63;;
13327;SDS011;6733;51.044;3.746;2022-10-31T12:01:59;15.40;;;12.33;;
13327;SDS011;6733;51.044;3.746;2022-10-31T12:04:31;16.90;;;12.60;;
13327;SDS011;6733;51.044;3.746;2022-10-31T12:07:07;16.37;;;12.40;;
13327;SDS011;6733;51.044;3.746;2022-10-31T12:09:34;18.93;;;12.97;;
13327;SDS011;6733;51.044;3.746;2022-10-31T12:17:55;17.30;;;13.07;;
13327;SDS011;6733;51.044;3.746;2022-10-31T12:45:39;16.33;;;12.13;;
13327;SDS011;6733;51.044;3.746;2022-10-31T12:48:32;17.23;;;12.00;;
13327;SDS011;6733;51.044;3.746;2022-10-31T12:57:14;17.50;;;11.67;;
13327;SDS011;6733;51.044;3.746;2022-10-31T13:00:10;15.07;;;12.43;;
13327;SDS011;6733;51.044;3.746;2022-10-31T13:05:10;18.90;;;12.67;;
13327;SDS011;6733;51.044;3.746;2022-10-31T13:08:07;13.67;;;12.27;;
13327;SDS011;6733;51.044;3.746;2022-10-31T13:13:24;14.70;;;11.47;;
13327;SDS011;6733;51.044;3.746;2022-10-31T13:16:18;17.57;;;12.73;;
13327;SDS011;6733;51.044;3.746;2022-10-31T13:21:39;14.30;;;12.00;;
13327;SDS011;6733;51.044;3.746;2022-10-31T13:24:23;16.77;;;12.20;;
13327;SDS011;6733;51.044;3.746;2022-10-31T13:26:58;23.03;;;12.50;;
13327;SDS011;6733;51.044;3.746;2022-10-31T13:29:37;15.93;;;12.00;;
13327;SDS011;6733;51.044;3.746;2022-10-31T13:32:08;13.70;;;12.13;;
13327;SDS011;6733;51.044;3.746;2022-10-31T13:34:36;17.70;;;12.83;;
13327;SDS011;6733;51.044;3.746;2022-10-31T13:37:28;19.67;;;12.53;;
13327;SDS011;6733;51.044;3.746;2022-10-31T13:40:18;17.77;;;12.03;;
13327;SDS011;6733;51.044;3.746;2022-10-31T13:43:20;20.73;;;14.93;;
13327;SDS011;6733;51.044;3.746;2022-10-31T13:45:49;19.50;;;15.40;;
13327;SDS011;6733;51.044;3.746;2022-10-31T13:50:55;18.87;;;13.27;;
13327;SDS011;6733;51.044;3.746;2022-10-31T13:53:39;22.03;;;16.33;;
13327;SDS011;6733;51.044;3.746;2022-10-31T13:58:34;16.73;;;11.77;;
13327;SDS011;6733;51.044;3.746;2022-10-31T14:03:55;15.63;;;12.27;;
13327;SDS011;6733;51.044;3.746;2022-10-31T14:06:35;21.93;;;12.63;;
13327;SDS011;6733;51.044;3.746;2022-10-31T14:09:04;16.80;;;11.47;;
13327;SDS011;6733;51.044;3.746;2022-10-31T14:11:30;15.87;;;13.07;;
13327;SDS011;6733;51.044;3.746;2022-10-31T14:13:57;17.67;;;12.93;;
13327;SDS011;6733;51.044;3.746;2022-10-31T14:16:29;16.37;;;13.07;;
13327;SDS011;6733;51.044;3.746;2022-10-31T14:18:59;17.20;;;13.20;;
13327;SDS011;6733;51.044;3.746;2022-10-31T14:21:35;17.77;;;13.07;;
13327;SDS011;6733;51.044;3.746;2022-10-31T14:26:52;20.93;;;13.70;;
13327;SDS011;6733;51.044;3.746;2022-10-31T14:29:33;16.40;;;13.57;;
13327;SDS011;6733;51.044;3.746;2022-10-31T14:32:01;16.73;;;13.17;;
13327;SDS011;6733;51.044;3.746;2022-10-31T14:34:42;19.53;;;13.80;;
13327;SDS011;6733;51.044;3.746;2022-10-31T14:40:57;20.10;;;13.97;;
13327;SDS011;6733;51.044;3.746;2022-10-31T14:48:27;20.57;;;13.10;;
13327;SDS011;6733;51.044;3.746;2022-10-31T14:50:58;18.70;;;13.47;;
13327;SDS011;6733;51.044;3.746;2022-10-31T14:53:31;15.10;;;12.93;;
13327;SDS011;6733;51.044;3.746;2022-10-31T14:55:59;18.40;;;13.00;;
13327;SDS011;6733;51.044;3.746;2022-10-31T14:58:45;17.87;;;13.23;;
13327;SDS011;6733;51.044;3.746;2022-10-31T15:03:48;19.53;;;13.07;;
13327;SDS011;6733;51.044;3.746;2022-10-31T15:06:16;16.03;;;13.00;;
13327;SDS011;6733;51.044;3.746;2022-10-31T15:11:24;16.80;;;13.17;;
13327;SDS011;6733;51.044;3.746;2022-10-31T15:13:53;16.63;;;13.73;;
13327;SDS011;6733;51.044;3.746;2022-10-31T15:16:25;20.40;;;13.90;;
13327;SDS011;6733;51.044;3.746;2022-10-31T15:18:57;23.13;;;14.73;;
13327;SDS011;6733;51.044;3.746;2022-10-31T15:21:33;19.53;;;15.13;;
13327;SDS011;6733;51.044;3.746;2022-10-31T15:24:01;20.57;;;14.73;;
13327;SDS011;6733;51.044;3.746;2022-10-31T15:26:31;20.63;;;15.93;;
13327;SDS011;6733;51.044;3.746;2022-10-31T15:29:00;23.67;;;14.63;;
13327;SDS011;6733;51.044;3.746;2022-10-31T15:31:29;21.70;;;14.90;;
13327;SDS011;6733;51.044;3.746;2022-10-31T15:33:58;22.77;;;18.43;;
13327;SDS011;6733;51.044;3.746;2022-10-31T15:36:31;21.87;;;15.20;;
13327;SDS011;6733;51.044;3.746;2022-10-31T15:38:58;22.20;;;15.00;;
13327;SDS011;6733;51.044;3.746;2022-10-31T15:43:58;22.43;;;14.93;;
13327;SDS011;6733;51.044;3.746;2022-10-31T15:46:28;22.67;;;15.07;;
13327;SDS011;6733;51.044;3.746;2022-10-31T15:48:55;22.67;;;16.10;;
13327;SDS011;6733;51.044;3.746;2022-10-31T15:51:25;23.47;;;14.80;;
13327;SDS011;6733;51.044;3.746;2022-10-31T15:53:53;22.17;;;15.50;;
13327;SDS011;6733;51.044;3.746;2022-10-31T15:56:22;25.70;;;16.33;;
13327;SDS011;6733;51.044;3.746;2022-10-31T15:58:51;21.80;;;15.10;;
13327;SDS011;6733;51.044;3.746;2022-10-31T16:01:20;27.30;;;15.70;;
13327;SDS011;6733;51.044;3.746;2022-10-31T16:06:32;21.50;;;14.67;;
13327;SDS011;6733;51.044;3.746;2022-10-31T16:08:59;23.40;;;14.50;;
13327;SDS011;6733;51.044;3.746;2022-10-31T16:11:34;20.30;;;14.53;;
13327;SDS011;6733;51.044;3.746;2022-10-31T16:14:03;24.63;;;15.13;;
13327;SDS011;6733;51.044;3.746;2022-10-31T16:16:33;30.03;;;15.10;;
13327;SDS011;6733;51.044;3.746;2022-10-31T16:19:11;20.37;;;13.27;;
13327;SDS011;6733;51.044;3.746;2022-10-31T16:21:46;21.17;;;12.40;;
13327;SDS011;6733;51.044;3.746;2022-10-31T16:24:22;20.20;;;13.20;;
13327;SDS011;6733;51.044;3.746;2022-10-31T16:27:01;16.33;;;13.37;;
13327;SDS011;6733;51.044;3.746;2022-10-31T16:29:35;20.07;;;12.63;;
13327;SDS011;6733;51.044;3.746;2022-10-31T16:32:03;23.73;;;13.50;;
13327;SDS011;6733;51.044;3.746;2022-10-31T16:34:29;19.00;;;13.57;;
13327;SDS011;6733;51.044;3.746;2022-10-31T16:36:55;18.67;;;13.03;;
13327;SDS011;6733;51.044;3.746;2022-10-31T16:39:22;21.97;;;14.13;;
13327;SDS011;6733;51.044;3.746;2022-10-31T16:41:49;22.47;;;14.43;;
13327;SDS011;6733;51.044;3.746;2022-10-31T16:44:18;18.80;;;13.70;;
13327;SDS011;6733;51.044;3.746;2022-10-31T16:47:07;22.30;;;13.53;;
13327;SDS011;6733;51.044;3.746;2022-10-31T16:49:41;19.00;;;12.90;;
13327;SDS011;6733;51.044;3.746;2022-10-31T16:52:08;17.80;;;12.37;;
13327;SDS011;6733;51.044;3.746;2022-10-31T16:54:34;23.33;;;12.67;;
13327;SDS011;6733;51.044;3.746;2022-10-31T16:57:01;16.67;;;13.67;;
13327;SDS011;6733;51.044;3.746;2022-10-31T16:59:29;19.80;;;13.37;;
13327;SDS011;6733;51.044;3.746;2022-10-31T17:01:57;19.60;;;14.03;;
13327;SDS011;6733;51.044;3.746;2022-10-31T17:04:23;22.83;;;13.37;;
13327;SDS011;6733;51.044;3.746;2022-10-31T17:06:50;18.23;;;13.53;;
13327;SDS011;6733;51.044;3.746;2022-10-31T17:09:16;19.43;;;13.50;;
13327;SDS011;6733;51.044;3.746;2022-10-31T17:11:44;20.83;;;13.20;;
13327;SDS011;6733;51.044;3.746;2022-10-31T17:14:12;19.60;;;12.50;;
13327;SDS011;6733;51.044;3.746;2022-10-31T17:16:38;20.20;;;13.10;;
13327;SDS011;6733;51.044;3.746;2022-10-31T17:19:04;16.03;;;12.53;;
13327;SDS011;6733;51.044;3.746;2022-10-31T17:21:31;17.33;;;13.87;;
13327;SDS011;6733;51.044;3.746;2022-10-31T17:23:57;17.73;;;14.03;;
13327;SDS011;6733;51.044;3.746;2022-10-31T17:26:23;18.57;;;13.27;;
13327;SDS011;6733;51.044;3.746;2022-10-31T17:28:49;23.07;;;14.57;;
13327;SDS011;6733;51.044;3.746;2022-10-31T17:31:28;19.83;;;14.37;;
13327;SDS011;6733;51.044;3.746;2022-10-31T17:33:56;18.00;;;13.83;;
13327;SDS011;6733;51.044;3.746;2022-10-31T17:36:24;21.73;;;13.93;;
13327;SDS011;6733;51.044;3.746;2022-10-31T17:38:50;21.87;;;13.73;;
13327;SDS011;6733;51.044;3.746;2022-10-31T17:41:17;19.90;;;14.87;;